Time,TemperatureF,DewpointF,PressureIn,WindDirection,WindDirectionDegrees,WindSpeedMPH,WindSpeedGustMPH,Humidity,HourlyPrecipIn,Conditions,Clouds,dailyrainin,SoftwareType,DateUTC
2013-02-02 00:08:00,1.2,-9.3,28.76,North,8,0.7,2.7,57,0.00,,,0.00,WSDL version 420,2013-02-02 06:08:00,
2013-02-02 00:14:00,1.2,-9.3,28.79,NE,53,1.8,2.7,57,0.00,,,0.00,WSDL version 420,2013-02-02 06:14:00,
2013-02-02 00:23:00,1.4,-9.2,28.79,North,353,2.5,2.7,57,0.00,,,0.00,WSDL version 420,2013-02-02 06:23:00,
2013-02-02 00:28:00,1.2,-9.3,28.79,ENE,68,1.6,2.9,57,0.00,,,0.00,WSDL version 420,2013-02-02 06:28:00,
2013-02-02 00:33:00,1.2,-9.3,28.79,NE,38,1.9,2.9,57,0.00,,,0.00,WSDL version 420,2013-02-02 06:33:00,
2013-02-02 00:38:00,1.2,-9.3,28.79,North,353,2.5,2.9,57,0.00,,,0.00,WSDL version 420,2013-02-02 06:38:00,
2013-02-02 00:43:00,1.2,-9.3,28.79,NNE,30,1.3,2.9,57,0.00,,,0.00,WSDL version 420,2013-02-02 06:43:00,
2013-02-02 00:48:00,1.2,-9.3,28.79,NNW,338,0.7,2.7,57,0.00,,,0.00,WSDL version 420,2013-02-02 06:48:00,
2013-02-02 00:53:00,1.2,-9.4,28.79,NNE,23,0.6,4.3,57,0.00,,,0.00,WSDL version 420,2013-02-02 06:53:00,
2013-02-02 00:58:00,1.1,-9.4,28.79,NE,36,2.1,4.3,57,0.00,,,0.00,WSDL version 420,2013-02-02 06:58:00,
2013-02-02 01:08:00,1.2,-9.4,28.79,NE,53,0.0,2.9,57,0.00,,,0.00,WSDL version 420,2013-02-02 07:08:00,
2013-02-02 01:13:00,1.2,-9.3,28.79,NNE,23,2.5,2.7,57,0.00,,,0.00,WSDL version 420,2013-02-02 07:13:00,
2013-02-02 01:18:00,1.2,-9.4,28.79,NNE,23,2.0,2.9,57,0.00,,,0.00,WSDL version 420,2013-02-02 07:18:00,
2013-02-02 01:23:00,1.2,-9.4,28.79,WNW,293,0.0,2.9,57,0.00,,,0.00,WSDL version 420,2013-02-02 07:23:00,
2013-02-02 01:28:00,1.3,-9.2,28.79,North,349,2.0,2.7,57,0.00,,,0.00,WSDL version 420,2013-02-02 07:28:00,
2013-02-02 01:33:00,1.2,-9.3,28.79,North,8,1.9,2.7,57,0.00,,,0.00,WSDL version 420,2013-02-02 07:33:00,
2013-02-02 01:38:00,1.2,-9.4,28.79,North,8,2.4,4.0,57,0.00,,,0.00,WSDL version 420,2013-02-02 07:38:00,
2013-02-02 01:43:00,1.2,-9.3,28.79,North,353,2.0,4.0,57,0.00,,,0.00,WSDL version 420,2013-02-02 07:43:00,
2013-02-02 01:48:00,1.2,-9.4,28.79,North,360,3.1,3.6,57,0.00,,,0.00,WSDL version 420,2013-02-02 07:48:00,
2013-02-02 01:53:00,1.0,-9.5,28.79,North,11,1.9,3.6,57,0.00,,,0.00,WSDL version 420,2013-02-02 07:53:00,
2013-02-02 01:58:00,1.2,-9.4,28.79,North,8,2.3,2.9,57,0.00,,,0.00,WSDL version 420,2013-02-02 07:58:00,
2013-02-02 02:07:00,1.2,-9.3,28.79,North,353,3.1,3.6,57,0.00,,,0.00,WSDL version 420,2013-02-02 08:07:00,
2013-02-02 02:12:00,1.0,-9.6,28.79,NNW,338,2.2,3.6,57,0.00,,,0.00,WSDL version 420,2013-02-02 08:12:00,
2013-02-02 02:17:00,1.1,-9.4,28.79,NNE,23,2.1,2.9,57,0.00,,,0.00,WSDL version 420,2013-02-02 08:17:00,
2013-02-02 02:22:00,0.9,-9.6,28.79,NNW,338,2.8,3.6,57,0.00,,,0.00,WSDL version 420,2013-02-02 08:22:00,
2013-02-02 02:27:00,1.0,-9.5,28.82,North,6,3.1,3.6,57,0.00,,,0.00,WSDL version 420,2013-02-02 08:27:00,
2013-02-02 02:32:00,0.9,-9.6,28.82,North,8,3.4,3.8,57,0.00,,,0.00,WSDL version 420,2013-02-02 08:32:00,
2013-02-02 02:37:00,1.0,-9.6,28.82,NNW,338,3.2,3.8,57,0.00,,,0.00,WSDL version 420,2013-02-02 08:37:00,
2013-02-02 02:42:00,1.0,-9.6,28.82,NNE,23,1.1,3.8,57,0.00,,,0.00,WSDL version 420,2013-02-02 08:42:00,
2013-02-02 02:47:00,0.9,-9.6,28.82,North,353,2.6,4.3,57,0.00,,,0.00,WSDL version 420,2013-02-02 08:47:00,
2013-02-02 02:52:00,0.8,-9.7,28.82,NNW,338,4.4,4.7,57,0.00,,,0.00,WSDL version 420,2013-02-02 08:52:00,
2013-02-02 02:57:00,0.8,-9.7,28.82,NNW,338,1.7,4.9,57,0.00,,,0.00,WSDL version 420,2013-02-02 08:57:00,
2013-02-02 03:02:00,0.7,-9.8,28.82,NNE,15,4.7,5.8,57,0.00,,,0.00,WSDL version 420,2013-02-02 09:02:00,
2013-02-02 03:07:00,0.7,-9.8,28.82,NNE,23,2.9,6.5,57,0.00,,,0.00,WSDL version 420,2013-02-02 09:07:00,
2013-02-02 03:12:00,0.7,-9.8,28.82,NNW,338,2.5,6.5,57,0.00,,,0.00,WSDL version 420,2013-02-02 09:12:00,
2013-02-02 03:17:00,1.0,-9.5,28.82,NNW,338,3.1,3.8,57,0.00,,,0.00,WSDL version 420,2013-02-02 09:17:00,
2013-02-02 03:22:00,0.9,-9.7,28.82,NNW,338,2.2,3.6,57,0.00,,,0.00,WSDL version 420,2013-02-02 09:22:00,
2013-02-02 03:27:00,0.9,-9.7,28.82,NNE,23,2.9,3.4,57,0.00,,,0.00,WSDL version 420,2013-02-02 09:27:00,
2013-02-02 03:32:00,0.7,-9.8,28.82,North,360,4.0,4.9,57,0.00,,,0.00,WSDL version 420,2013-02-02 09:32:00,
2013-02-02 03:37:00,0.7,-9.8,28.82,NNW,345,3.1,4.9,57,0.00,,,0.00,WSDL version 420,2013-02-02 09:37:00,
2013-02-02 03:42:00,0.7,-9.8,28.82,North,353,3.6,4.9,57,0.00,,,0.00,WSDL version 420,2013-02-02 09:42:00,
2013-02-02 03:47:00,0.7,-9.8,28.82,NNW,338,3.4,5.4,57,0.00,,,0.00,WSDL version 420,2013-02-02 09:47:00,
2013-02-02 03:52:00,0.7,-9.8,28.82,NW,323,3.6,5.4,57,0.00,,,0.00,WSDL version 420,2013-02-02 09:52:00,
2013-02-02 03:57:00,0.7,-9.8,28.82,NNW,345,3.7,4.0,57,0.00,,,0.00,WSDL version 420,2013-02-02 09:57:00,
2013-02-02 04:02:00,0.6,-9.9,28.82,NW,323,5.1,5.4,57,0.00,,,0.00,WSDL version 420,2013-02-02 10:02:00,
2013-02-02 04:07:00,0.6,-10.0,28.82,North,353,3.4,5.4,57,0.00,,,0.00,WSDL version 420,2013-02-02 10:07:00,
2013-02-02 04:12:00,0.6,-9.9,28.82,NW,308,2.2,4.0,57,0.00,,,0.00,WSDL version 420,2013-02-02 10:12:00,
2013-02-02 04:17:00,0.6,-9.9,28.82,NNW,338,3.8,5.4,57,0.00,,,0.00,WSDL version 420,2013-02-02 10:17:00,
2013-02-02 04:22:00,0.6,-9.9,28.82,North,349,4.1,5.6,57,0.00,,,0.00,WSDL version 420,2013-02-02 10:22:00,
2013-02-02 04:27:00,0.6,-9.9,28.82,NNW,345,3.7,5.6,57,0.00,,,0.00,WSDL version 420,2013-02-02 10:27:00,
2013-02-02 04:32:00,0.6,-9.9,28.82,NNW,338,2.3,5.4,57,0.00,,,0.00,WSDL version 420,2013-02-02 10:32:00,
2013-02-02 04:37:00,0.6,-9.9,28.82,NNW,338,3.2,4.3,57,0.00,,,0.00,WSDL version 420,2013-02-02 10:37:00,
2013-02-02 04:42:00,0.5,-10.0,28.82,NNW,338,3.5,4.3,57,0.00,,,0.00,WSDL version 420,2013-02-02 10:42:00,
2013-02-02 04:47:00,0.6,-9.9,28.82,NNW,338,2.7,4.3,57,0.00,,,0.00,WSDL version 420,2013-02-02 10:47:00,
2013-02-02 04:52:00,0.7,-9.8,28.82,NW,323,5.4,6.3,57,0.00,,,0.00,WSDL version 420,2013-02-02 10:52:00,
2013-02-02 04:57:00,0.7,-9.8,28.85,NNW,338,3.2,6.3,57,0.00,,,0.00,WSDL version 420,2013-02-02 10:57:00,
2013-02-02 05:02:00,0.5,-10.0,28.85,NNW,338,2.8,4.0,57,0.00,,,0.00,WSDL version 420,2013-02-02 11:02:00,
2013-02-02 05:07:00,0.7,-9.8,28.85,NNE,30,2.2,5.4,57,0.00,,,0.00,WSDL version 420,2013-02-02 11:07:00,
2013-02-02 05:12:00,0.4,-10.1,28.85,North,353,3.4,5.6,57,0.00,,,0.00,WSDL version 420,2013-02-02 11:12:00,
2013-02-02 05:17:00,0.5,-10.0,28.85,North,349,2.2,5.6,57,0.00,,,0.00,WSDL version 420,2013-02-02 11:17:00,
2013-02-02 05:22:00,0.6,-10.0,28.85,NNW,338,4.8,5.6,57,0.00,,,0.00,WSDL version 420,2013-02-02 11:22:00,
2013-02-02 05:27:00,0.6,-9.9,28.85,NNW,338,3.7,5.6,57,0.00,,,0.00,WSDL version 420,2013-02-02 11:27:00,
2013-02-02 05:32:00,0.7,-9.8,28.85,North,353,2.6,4.3,57,0.00,,,0.00,WSDL version 420,2013-02-02 11:32:00,
2013-02-02 05:37:00,0.6,-10.0,28.85,NNW,338,2.6,3.6,57,0.00,,,0.00,WSDL version 420,2013-02-02 11:37:00,
2013-02-02 05:42:00,0.3,-10.2,28.85,NNW,338,3.0,4.0,57,0.00,,,0.00,WSDL version 420,2013-02-02 11:42:00,
2013-02-02 05:47:00,0.4,-10.1,28.85,North,354,2.0,4.0,57,0.00,,,0.00,WSDL version 420,2013-02-02 11:47:00,
2013-02-02 05:52:00,0.4,-10.1,28.85,North,8,2.1,6.5,57,0.00,,,0.00,WSDL version 420,2013-02-02 11:52:00,
2013-02-02 05:57:00,0.3,-10.2,28.85,NNW,338,3.2,6.5,57,0.00,,,0.00,WSDL version 420,2013-02-02 11:57:00,
2013-02-02 06:02:00,0.3,-10.2,28.85,North,353,3.2,6.5,57,0.00,,,0.00,WSDL version 420,2013-02-02 12:02:00,
2013-02-02 06:07:00,0.3,-10.2,28.85,North,8,2.7,4.3,57,0.00,,,0.00,WSDL version 420,2013-02-02 12:07:00,
2013-02-02 06:12:00,0.3,-10.2,28.85,North,8,2.6,3.6,57,0.00,,,0.00,WSDL version 420,2013-02-02 12:12:00,
2013-02-02 06:17:00,0.3,-10.2,28.85,NE,34,3.6,4.0,57,0.00,,,0.00,WSDL version 420,2013-02-02 12:17:00,
2013-02-02 06:22:00,0.3,-10.2,28.85,NNW,345,3.2,4.0,57,0.00,,,0.00,WSDL version 420,2013-02-02 12:22:00,
2013-02-02 06:27:00,0.3,-10.2,28.85,NNW,338,2.2,4.0,57,0.00,,,0.00,WSDL version 420,2013-02-02 12:27:00,
2013-02-02 06:32:00,0.2,-10.3,28.85,NNW,338,3.5,5.4,57,0.00,,,0.00,WSDL version 420,2013-02-02 12:32:00,
2013-02-02 06:37:00,0.0,-10.5,28.85,North,360,1.9,5.4,57,0.00,,,0.00,WSDL version 420,2013-02-02 12:37:00,
2013-02-02 06:42:00,0.0,-10.5,28.85,North,8,2.9,4.0,57,0.00,,,0.00,WSDL version 420,2013-02-02 12:42:00,
2013-02-02 06:47:00,0.0,-10.5,28.85,NE,53,3.3,3.8,57,0.00,,,0.00,WSDL version 420,2013-02-02 12:47:00,
2013-02-02 06:52:00,0.0,-10.5,28.85,North,360,2.0,3.6,57,0.00,,,0.00,WSDL version 420,2013-02-02 12:52:00,
2013-02-02 06:57:00,-0.2,-10.7,28.85,North,8,2.0,3.4,57,0.00,,,0.00,WSDL version 420,2013-02-02 12:57:00,
2013-02-02 07:02:00,-0.5,-10.9,28.85,NNW,345,2.7,3.4,57,0.00,,,0.00,WSDL version 420,2013-02-02 13:02:00,
2013-02-02 07:07:00,-0.6,-11.0,28.85,NE,38,1.2,3.1,57,0.00,,,0.00,WSDL version 420,2013-02-02 13:07:00,
2013-02-02 07:12:00,-0.7,-11.1,28.85,North,354,2.6,3.1,57,0.00,,,0.00,WSDL version 420,2013-02-02 13:12:00,
2013-02-02 07:17:00,-0.8,-11.2,28.85,NNW,345,2.2,2.7,57,0.00,,,0.00,WSDL version 420,2013-02-02 13:17:00,
2013-02-02 07:22:00,-0.9,-11.3,28.85,NNW,345,1.9,2.5,57,0.00,,,0.00,WSDL version 420,2013-02-02 13:22:00,
2013-02-02 07:27:00,-0.9,-11.4,28.85,NNE,23,0.0,2.5,57,0.00,,,0.00,WSDL version 420,2013-02-02 13:27:00,
2013-02-02 07:32:00,-1.0,-11.4,28.85,NNE,23,1.4,2.5,57,0.00,,,0.00,WSDL version 420,2013-02-02 13:32:00,
2013-02-02 07:37:00,-1.2,-11.6,28.85,NE,45,0.4,2.0,57,0.00,,,0.00,WSDL version 420,2013-02-02 13:37:00,
2013-02-02 07:47:00,-1.5,-11.9,28.85,East,90,0.0,2.0,57,0.00,,,0.00,WSDL version 420,2013-02-02 13:47:00,
2013-02-02 07:52:00,-1.4,-11.8,28.85,East,90,0.0,0.0,57,0.00,,,0.00,WSDL version 420,2013-02-02 13:52:00,
2013-02-02 07:57:00,-1.6,-12.0,28.85,East,90,0.0,0.0,57,0.00,,,0.00,WSDL version 420,2013-02-02 13:57:00,
2013-02-02 08:02:00,-1.4,-11.8,28.85,East,90,0.0,0.0,57,0.00,,,0.00,WSDL version 420,2013-02-02 14:02:00,
2013-02-02 08:07:00,-1.3,-11.7,28.85,East,90,0.0,0.0,57,0.00,,,0.00,WSDL version 420,2013-02-02 14:07:00,
2013-02-02 08:17:00,-1.2,-11.6,28.85,North,360,0.0,1.3,57,0.00,,,0.00,WSDL version 420,2013-02-02 14:17:00,
2013-02-02 08:22:00,-1.0,-11.4,28.85,North,360,0.4,1.1,57,0.00,,,0.00,WSDL version 420,2013-02-02 14:22:00,
2013-02-02 08:27:00,-0.9,-11.3,28.85,NNW,345,1.5,2.0,57,0.00,,,0.00,WSDL version 420,2013-02-02 14:27:00,
2013-02-02 08:37:00,-0.2,-10.7,28.85,NNW,338,1.3,2.5,57,0.00,,,0.00,WSDL version 420,2013-02-02 14:37:00,
2013-02-02 08:42:00,0.0,-10.5,28.85,NNE,14,1.2,2.5,57,0.00,,,0.00,WSDL version 420,2013-02-02 14:42:00,
2013-02-02 08:47:00,0.3,-10.2,28.85,North,353,1.9,2.5,57,0.00,,,0.00,WSDL version 420,2013-02-02 14:47:00,
2013-02-02 08:52:00,0.7,-9.8,28.85,North,353,2.5,2.7,57,0.00,,,0.00,WSDL version 420,2013-02-02 14:52:00,
2013-02-02 08:57:00,0.7,-9.8,28.85,NNE,23,1.8,2.7,57,0.00,,,0.00,WSDL version 420,2013-02-02 14:57:00,
2013-02-02 09:02:00,1.0,-9.5,28.85,NW,323,1.6,2.7,57,0.00,,,0.00,WSDL version 420,2013-02-02 15:02:00,
2013-02-02 09:07:00,1.7,-8.9,28.85,WNW,300,1.0,2.7,57,0.00,,,0.00,WSDL version 420,2013-02-02 15:07:00,
2013-02-02 09:12:00,1.9,-8.6,28.85,NE,45,1.5,2.5,57,0.00,,,0.00,WSDL version 420,2013-02-02 15:12:00,
2013-02-02 09:17:00,2.1,-8.5,28.85,North,8,1.8,2.7,57,0.00,,,0.00,WSDL version 420,2013-02-02 15:17:00,
2013-02-02 09:22:00,2.3,-8.3,28.85,NNW,338,0.4,2.7,57,0.00,,,0.00,WSDL version 420,2013-02-02 15:22:00,
2013-02-02 09:27:00,2.5,-8.1,28.85,East,90,1.8,3.1,57,0.00,,,0.00,WSDL version 420,2013-02-02 15:27:00,
2013-02-02 09:32:00,2.9,-7.7,28.85,NE,38,1.3,3.1,57,0.00,,,0.00,WSDL version 420,2013-02-02 15:32:00,
2013-02-02 09:37:00,3.2,-7.4,28.85,North,360,0.0,2.9,57,0.00,,,0.00,WSDL version 420,2013-02-02 15:37:00,
2013-02-02 09:47:00,4.0,-6.7,28.85,ESE,105,3.3,4.0,57,0.00,,,0.00,WSDL version 420,2013-02-02 15:47:00,
2013-02-02 09:52:00,3.9,-6.8,28.85,ENE,75,2.0,4.0,57,0.00,,,0.00,WSDL version 420,2013-02-02 15:52:00,
2013-02-02 09:57:00,4.4,-6.3,28.85,ESE,113,0.9,4.0,57,0.00,,,0.00,WSDL version 420,2013-02-02 15:57:00,
2013-02-02 10:02:00,4.9,-5.8,28.85,ESE,113,1.4,4.0,57,0.00,,,0.00,WSDL version 420,2013-02-02 16:02:00,
2013-02-02 10:07:00,5.5,-5.3,28.85,East,90,2.2,3.4,57,0.00,,,0.00,WSDL version 420,2013-02-02 16:07:00,
2013-02-02 10:12:00,5.4,-5.4,28.85,ESE,107,2.0,3.4,57,0.00,,,0.00,WSDL version 420,2013-02-02 16:12:00,
2013-02-02 10:17:00,5.5,-5.3,28.85,ESE,113,1.6,2.9,57,0.00,,,0.00,WSDL version 420,2013-02-02 16:17:00,
2013-02-02 10:22:00,6.0,-4.7,28.85,SSE,163,1.7,2.9,57,0.00,,,0.00,WSDL version 420,2013-02-02 16:22:00,
2013-02-02 10:27:00,6.1,-4.6,28.85,East,90,1.7,3.1,57,0.00,,,0.00,WSDL version 420,2013-02-02 16:27:00,
2013-02-02 10:32:00,6.3,-4.5,28.85,SW,225,2.6,3.1,57,0.00,,,0.00,WSDL version 420,2013-02-02 16:32:00,
2013-02-02 10:37:00,6.3,-4.5,28.85,WSW,255,2.9,2.9,57,0.00,,,0.00,WSDL version 420,2013-02-02 16:37:00,
2013-02-02 10:42:00,6.3,-4.5,28.85,South,188,1.9,2.9,57,0.00,,,0.00,WSDL version 420,2013-02-02 16:42:00,
2013-02-02 10:47:00,6.6,-4.2,28.85,SSE,158,1.6,2.9,57,0.00,,,0.00,WSDL version 420,2013-02-02 16:47:00,
2013-02-02 10:52:00,6.7,-4.1,28.85,SSE,158,0.0,2.5,57,0.00,,,0.00,WSDL version 420,2013-02-02 16:52:00,
2013-02-02 10:57:00,6.8,-4.0,28.85,SSE,158,0.3,2.5,57,0.00,,,0.00,WSDL version 420,2013-02-02 16:57:00,
2013-02-02 11:02:00,6.9,-3.9,28.85,West,270,2.0,2.2,57,0.00,,,0.00,WSDL version 420,2013-02-02 17:02:00,
2013-02-02 11:07:00,6.8,-4.0,28.85,South,188,0.9,2.2,57,0.00,,,0.00,WSDL version 420,2013-02-02 17:07:00,
2013-02-02 11:12:00,7.2,-3.6,28.85,SW,218,1.5,2.7,57,0.00,,,0.00,WSDL version 420,2013-02-02 17:12:00,
2013-02-02 11:17:00,7.6,-3.2,28.85,West,264,3.2,3.4,57,0.00,,,0.00,WSDL version 420,2013-02-02 17:17:00,
2013-02-02 11:22:00,7.8,-3.0,28.85,SSW,210,0.0,3.6,57,0.00,,,0.00,WSDL version 420,2013-02-02 17:22:00,
2013-02-02 11:27:00,8.1,-2.8,28.85,WSW,240,1.3,3.6,57,0.00,,,0.00,WSDL version 420,2013-02-02 17:27:00,
2013-02-02 11:32:00,8.3,-2.6,28.85,West,270,2.4,3.4,57,0.00,,,0.00,WSDL version 420,2013-02-02 17:32:00,
2013-02-02 11:37:00,8.5,-2.4,28.85,South,191,1.8,3.1,57,0.00,,,0.00,WSDL version 420,2013-02-02 17:37:00,
2013-02-02 11:42:00,9.1,-1.8,28.85,South,188,2.6,2.9,57,0.00,,,0.00,WSDL version 420,2013-02-02 17:42:00,
2013-02-02 11:47:00,9.2,-1.7,28.85,SW,236,2.9,3.4,57,0.00,,,0.00,WSDL version 420,2013-02-02 17:47:00,
2013-02-02 11:52:00,8.8,-2.1,28.85,West,270,3.9,4.3,57,0.00,,,0.00,WSDL version 420,2013-02-02 17:52:00,
2013-02-02 11:57:00,9.0,-1.9,28.82,WSW,248,3.5,4.7,57,0.00,,,0.00,WSDL version 420,2013-02-02 17:57:00,
2013-02-02 12:02:00,8.8,-2.1,28.82,West,278,2.8,4.7,57,0.00,,,0.00,WSDL version 420,2013-02-02 18:02:00,
2013-02-02 12:07:00,9.3,-1.7,28.82,NW,315,2.4,4.3,57,0.00,,,0.00,WSDL version 420,2013-02-02 18:07:00,
2013-02-02 12:12:00,9.2,-1.7,28.82,WSW,248,1.7,3.6,57,0.00,,,0.00,WSDL version 420,2013-02-02 18:12:00,
2013-02-02 12:17:00,9.4,-1.5,28.82,SSW,210,0.5,3.6,57,0.00,,,0.00,WSDL version 420,2013-02-02 18:17:00,
2013-02-02 12:22:00,9.9,-1.1,28.82,South,188,1.9,3.1,57,0.00,,,0.00,WSDL version 420,2013-02-02 18:22:00,
2013-02-02 12:32:00,10.3,-0.6,28.82,SW,233,2.9,3.4,57,0.00,,,0.00,WSDL version 420,2013-02-02 18:32:00,
2013-02-02 12:37:00,10.1,-0.9,28.82,SSW,195,2.5,3.6,57,0.00,,,0.00,WSDL version 420,2013-02-02 18:37:00,
2013-02-02 12:42:00,10.3,-0.6,28.82,SSW,203,2.7,4.0,57,0.00,,,0.00,WSDL version 420,2013-02-02 18:42:00,
2013-02-02 12:47:00,10.3,-0.7,28.82,WSW,248,3.1,5.6,57,0.00,,,0.00,WSDL version 420,2013-02-02 18:47:00,
2013-02-02 12:52:00,10.4,-0.6,28.82,SW,218,3.4,5.6,57,0.00,,,0.00,WSDL version 420,2013-02-02 18:52:00,
2013-02-02 12:57:00,10.4,-0.6,28.82,West,270,5.0,6.5,57,0.00,,,0.00,WSDL version 420,2013-02-02 18:57:00,
2013-02-02 13:02:00,10.5,-0.5,28.82,West,270,3.1,6.5,57,0.00,,,0.00,WSDL version 420,2013-02-02 19:02:00,
2013-02-02 13:07:00,10.3,-0.6,28.82,West,279,3.6,6.5,57,0.00,,,0.00,WSDL version 420,2013-02-02 19:07:00,
2013-02-02 13:12:00,9.6,-1.3,28.79,SW,218,4.0,6.5,57,0.00,,,0.00,WSDL version 420,2013-02-02 19:12:00,
2013-02-02 13:17:00,9.8,-1.1,28.79,SSW,203,2.8,5.8,57,0.00,,,0.00,WSDL version 420,2013-02-02 19:17:00,
2013-02-02 13:22:00,10.1,-0.8,28.79,SW,233,2.3,4.3,57,0.00,,,0.00,WSDL version 420,2013-02-02 19:22:00,
2013-02-02 13:27:00,10.2,-0.8,28.79,WSW,248,2.5,4.9,57,0.00,,,0.00,WSDL version 420,2013-02-02 19:27:00,
2013-02-02 13:32:00,9.7,-1.3,28.79,SSW,203,2.3,4.9,57,0.00,,,0.00,WSDL version 420,2013-02-02 19:32:00,
2013-02-02 13:37:00,9.9,-1.0,28.79,West,279,2.7,5.4,57,0.00,,,0.00,WSDL version 420,2013-02-02 19:37:00,
2013-02-02 13:42:00,10.1,-0.9,28.76,WNW,300,4.5,5.4,57,0.00,,,0.00,WSDL version 420,2013-02-02 19:42:00,
2013-02-02 13:47:00,9.6,-1.4,28.76,SW,225,3.2,4.9,57,0.00,,,0.00,WSDL version 420,2013-02-02 19:47:00,
2013-02-02 13:52:00,9.3,-1.6,28.76,WSW,253,2.9,4.9,57,0.00,,,0.00,WSDL version 420,2013-02-02 19:52:00,
2013-02-02 13:57:00,9.2,-1.7,28.76,WSW,240,3.3,5.4,57,0.00,,,0.00,WSDL version 420,2013-02-02 19:57:00,
2013-02-02 14:02:00,9.3,-1.6,28.76,WNW,293,3.1,5.4,57,0.00,,,0.00,WSDL version 420,2013-02-02 20:02:00,
2013-02-02 14:07:00,9.3,-1.6,28.76,WSW,257,5.0,6.5,57,0.00,,,0.00,WSDL version 420,2013-02-02 20:07:00,
2013-02-02 14:12:00,9.2,-1.7,28.76,WNW,293,4.2,6.5,57,0.00,,,0.00,WSDL version 420,2013-02-02 20:12:00,
2013-02-02 14:22:00,9.3,-1.7,28.76,WNW,287,3.6,6.0,57,0.00,,,0.00,WSDL version 420,2013-02-02 20:22:00,
2013-02-02 14:27:00,9.3,-1.6,28.76,WSW,255,3.6,5.4,57,0.00,,,0.00,WSDL version 420,2013-02-02 20:27:00,
2013-02-02 14:32:00,9.3,-1.7,28.76,WSW,240,3.6,5.8,57,0.00,,,0.00,WSDL version 420,2013-02-02 20:32:00,
2013-02-02 14:37:00,9.1,-1.8,28.76,WSW,257,3.0,5.8,57,0.00,,,0.00,WSDL version 420,2013-02-02 20:37:00,
2013-02-02 14:42:00,9.0,-1.9,28.76,SW,233,3.6,3.8,57,0.00,,,0.00,WSDL version 420,2013-02-02 20:42:00,
2013-02-02 14:47:00,9.2,-1.7,28.76,West,281,4.5,4.9,57,0.00,,,0.00,WSDL version 420,2013-02-02 20:47:00,
2013-02-02 14:52:00,9.4,-1.5,28.76,SW,225,2.4,4.9,57,0.00,,,0.00,WSDL version 420,2013-02-02 20:52:00,
2013-02-02 14:57:00,9.9,-1.1,28.76,SSW,203,3.4,5.4,57,0.00,,,0.00,WSDL version 420,2013-02-02 20:57:00,
2013-02-02 15:02:00,10.0,-0.9,28.76,WNW,285,3.6,5.4,57,0.00,,,0.00,WSDL version 420,2013-02-02 21:02:00,
2013-02-02 15:07:00,10.3,-0.6,28.76,WSW,240,2.6,4.3,57,0.00,,,0.00,WSDL version 420,2013-02-02 21:07:00,
2013-02-02 15:12:00,10.5,-0.5,28.76,WSW,240,3.3,4.9,57,0.00,,,0.00,WSDL version 420,2013-02-02 21:12:00,
2013-02-02 15:17:00,10.2,-0.7,28.76,West,278,3.4,4.9,57,0.00,,,0.00,WSDL version 420,2013-02-02 21:17:00,
2013-02-02 15:22:00,10.3,-0.6,28.76,WSW,240,2.3,4.3,57,0.00,,,0.00,WSDL version 420,2013-02-02 21:22:00,
2013-02-02 15:27:00,10.8,-0.2,28.73,WNW,293,3.3,4.9,57,0.00,,,0.00,WSDL version 420,2013-02-02 21:27:00,
2013-02-02 15:32:00,10.1,-0.8,28.73,West,278,4.9,6.5,57,0.00,,,0.00,WSDL version 420,2013-02-02 21:32:00,
2013-02-02 15:37:00,9.7,-1.3,28.73,WNW,293,3.1,6.5,57,0.00,,,0.00,WSDL version 420,2013-02-02 21:37:00,
2013-02-02 15:42:00,9.7,-1.3,28.73,West,259,2.2,5.4,57,0.00,,,0.00,WSDL version 420,2013-02-02 21:42:00,
2013-02-02 15:47:00,9.9,-1.1,28.73,WSW,240,4.7,4.9,57,0.00,,,0.00,WSDL version 420,2013-02-02 21:47:00,
2013-02-02 15:52:00,9.8,-1.2,28.73,WSW,240,4.2,4.9,57,0.00,,,0.00,WSDL version 420,2013-02-02 21:52:00,
2013-02-02 15:57:00,9.9,-1.1,28.73,West,278,3.2,4.7,57,0.00,,,0.00,WSDL version 420,2013-02-02 21:57:00,
2013-02-02 16:02:00,10.1,-0.9,28.73,SSE,158,0.0,3.8,57,0.00,,,0.00,WSDL version 420,2013-02-02 22:02:00,
2013-02-02 16:07:00,9.9,-1.1,28.73,SW,233,2.5,3.8,57,0.00,,,0.00,WSDL version 420,2013-02-02 22:07:00,
2013-02-02 16:12:00,9.3,-1.6,28.73,SW,214,3.2,3.6,57,0.00,,,0.00,WSDL version 420,2013-02-02 22:12:00,
2013-02-02 16:17:00,9.3,-1.6,28.73,SW,233,1.4,3.6,57,0.00,,,0.00,WSDL version 420,2013-02-02 22:17:00,
2013-02-02 16:22:00,9.3,-1.6,28.73,West,278,2.6,4.3,57,0.00,,,0.00,WSDL version 420,2013-02-02 22:22:00,
2013-02-02 16:27:00,9.3,-1.6,28.73,WNW,293,1.6,4.3,57,0.00,,,0.00,WSDL version 420,2013-02-02 22:27:00,
2013-02-02 16:32:00,9.3,-1.6,28.73,SSE,158,1.7,2.9,57,0.00,,,0.00,WSDL version 420,2013-02-02 22:32:00,
2013-02-02 16:42:00,9.1,-1.8,28.70,SSW,203,1.5,2.9,57,0.00,,,0.00,WSDL version 420,2013-02-02 22:42:00,
2013-02-02 16:47:00,9.1,-1.8,28.70,South,188,2.7,4.3,57,0.00,,,0.00,WSDL version 420,2013-02-02 22:47:00,
2013-02-02 16:52:00,9.0,-1.9,28.70,South,188,1.7,4.3,57,0.00,,,0.00,WSDL version 420,2013-02-02 22:52:00,
2013-02-02 16:57:00,8.8,-2.1,28.70,SW,233,1.9,2.9,57,0.00,,,0.00,WSDL version 420,2013-02-02 22:57:00,
2013-02-02 17:02:00,8.6,-2.3,28.70,SW,225,2.0,2.9,57,0.00,,,0.00,WSDL version 420,2013-02-02 23:02:00,
2013-02-02 17:07:00,8.6,-2.3,28.70,SSW,210,1.5,2.7,57,0.00,,,0.00,WSDL version 420,2013-02-02 23:07:00,
2013-02-02 17:12:00,8.2,-2.6,28.70,WSW,240,2.9,3.6,57,0.00,,,0.00,WSDL version 420,2013-02-02 23:12:00,
2013-02-02 17:17:00,8.1,-2.8,28.70,WSW,248,2.2,3.6,57,0.00,,,0.00,WSDL version 420,2013-02-02 23:17:00,
2013-02-02 17:22:00,8.1,-2.8,28.70,WSW,248,0.9,3.1,57,0.00,,,0.00,WSDL version 420,2013-02-02 23:22:00,
2013-02-02 17:27:00,8.1,-2.8,28.70,SW,233,1.7,3.1,57,0.00,,,0.00,WSDL version 420,2013-02-02 23:27:00,
2013-02-02 17:32:00,-999.0,-99.9,28.70,SW,214,1.8,3.1,-999,0.00,,,0.00,WSDL version 420,2013-02-02 23:32:00,
2013-02-02 17:37:00,8.1,-2.8,28.70,SSE,163,1.5,3.1,57,0.00,,,0.00,WSDL version 420,2013-02-02 23:37:00,
2013-02-02 17:42:00,8.1,-2.8,28.70,SSE,158,0.4,2.0,57,0.00,,,0.00,WSDL version 420,2013-02-02 23:42:00,
2013-02-02 17:47:00,8.1,-2.8,28.70,South,169,0.8,1.6,57,0.00,,,0.00,WSDL version 420,2013-02-02 23:47:00,
2013-02-02 17:52:00,8.2,-2.6,28.70,SSE,163,1.3,2.7,57,0.00,,,0.00,WSDL version 420,2013-02-02 23:52:00,
2013-02-02 17:57:00,8.2,-2.7,28.70,SSE,158,2.9,3.4,57,0.00,,,0.00,WSDL version 420,2013-02-02 23:57:00,
2013-02-02 18:02:00,8.1,-2.8,28.70,SSE,158,1.4,3.4,57,0.00,,,0.00,WSDL version 420,2013-02-03 00:02:00,
2013-02-02 18:07:00,8.1,-2.8,28.70,South,173,3.1,6.5,57,0.00,,,0.00,WSDL version 420,2013-02-03 00:07:00,
2013-02-02 18:12:00,8.0,-2.9,28.67,SSE,165,2.4,6.5,57,0.00,,,0.00,WSDL version 420,2013-02-03 00:12:00,
2013-02-02 18:17:00,7.9,-3.0,28.67,SSE,163,0.3,4.9,57,0.00,,,0.00,WSDL version 420,2013-02-03 00:17:00,
2013-02-02 18:22:00,7.9,-3.0,28.67,SSE,158,2.2,3.4,57,0.00,,,0.00,WSDL version 420,2013-02-03 00:22:00,
2013-02-02 18:27:00,7.9,-3.0,28.70,South,188,2.3,3.8,57,0.00,,,0.00,WSDL version 420,2013-02-03 00:27:00,
2013-02-02 18:32:00,7.9,-3.0,28.70,SSE,149,1.6,3.8,57,0.00,,,0.00,WSDL version 420,2013-02-03 00:32:00,
2013-02-02 18:37:00,8.1,-2.8,28.70,SSE,158,1.3,2.7,57,0.00,,,0.00,WSDL version 420,2013-02-03 00:37:00,
2013-02-02 18:42:00,7.9,-3.0,28.67,South,173,3.1,5.6,57,0.00,,,0.00,WSDL version 420,2013-02-03 00:42:00,
2013-02-02 18:47:00,7.8,-3.1,28.67,SSW,210,2.0,5.6,57,0.00,,,0.00,WSDL version 420,2013-02-03 00:47:00,
2013-02-02 18:52:00,7.6,-3.2,28.67,SW,218,2.8,3.6,57,0.00,,,0.00,WSDL version 420,2013-02-03 00:52:00,
2013-02-02 18:57:00,7.7,-3.1,28.67,South,173,2.2,3.1,57,0.00,,,0.00,WSDL version 420,2013-02-03 00:57:00,
2013-02-02 19:07:00,7.6,-3.3,28.67,SW,233,1.4,3.1,57,0.00,,,0.00,WSDL version 420,2013-02-03 01:07:00,
2013-02-02 19:17:00,7.5,-3.3,28.67,South,180,0.0,3.1,57,0.00,,,0.00,WSDL version 420,2013-02-03 01:17:00,
2013-02-02 19:22:00,7.6,-3.3,28.67,SSW,203,2.0,2.0,57,0.00,,,0.00,WSDL version 420,2013-02-03 01:22:00,
2013-02-02 19:27:00,7.5,-3.3,28.67,South,188,2.7,3.4,57,0.00,,,0.00,WSDL version 420,2013-02-03 01:27:00,
2013-02-02 19:32:00,7.7,-3.1,28.67,SSE,165,1.0,4.7,57,0.00,,,0.00,WSDL version 420,2013-02-03 01:32:00,
2013-02-02 19:37:00,7.7,-3.1,28.67,SSE,150,0.7,4.7,57,0.00,,,0.00,WSDL version 420,2013-02-03 01:37:00,
2013-02-02 19:42:00,7.7,-3.1,28.67,SSE,158,2.8,5.6,57,0.00,,,0.00,WSDL version 420,2013-02-03 01:42:00,
2013-02-02 19:47:00,7.6,-3.2,28.67,SSW,210,0.7,5.6,57,0.00,,,0.00,WSDL version 420,2013-02-03 01:47:00,
2013-02-02 19:52:00,7.5,-3.3,28.67,SSE,158,1.9,2.7,57,0.00,,,0.00,WSDL version 420,2013-02-03 01:52:00,
2013-02-02 19:57:00,7.6,-3.3,28.67,South,188,1.7,2.7,57,0.00,,,0.00,WSDL version 420,2013-02-03 01:57:00,
2013-02-02 20:02:00,7.6,-3.2,28.67,South,180,0.5,2.7,57,0.00,,,0.00,WSDL version 420,2013-02-03 02:02:00,
2013-02-02 20:07:00,7.7,-3.1,28.67,SSE,158,2.8,3.6,57,0.00,,,0.00,WSDL version 420,2013-02-03 02:07:00,
2013-02-02 20:12:00,7.7,-3.1,28.67,SE,135,1.0,3.6,57,0.00,,,0.00,WSDL version 420,2013-02-03 02:12:00,
2013-02-02 20:17:00,7.7,-3.1,28.67,SE,135,0.6,2.2,57,0.00,,,0.00,WSDL version 420,2013-02-03 02:17:00,
2013-02-02 20:22:00,7.7,-3.1,28.67,SSW,203,0.6,1.1,57,0.00,,,0.00,WSDL version 420,2013-02-03 02:22:00,
2013-02-02 20:27:00,7.9,-3.0,28.67,SSE,158,0.6,1.3,57,0.00,,,0.00,WSDL version 420,2013-02-03 02:27:00,
2013-02-02 20:32:00,7.9,-3.0,28.67,SSE,158,1.9,2.0,57,0.00,,,0.00,WSDL version 420,2013-02-03 02:32:00,
2013-02-02 20:37:00,7.9,-3.0,28.67,SSE,158,0.7,2.2,57,0.00,,,0.00,WSDL version 420,2013-02-03 02:37:00,
2013-02-02 20:42:00,7.9,-3.0,28.67,SSE,158,0.0,2.2,57,0.00,,,0.00,WSDL version 420,2013-02-03 02:42:00,
2013-02-02 20:47:00,7.9,-3.0,28.67,SSE,158,0.0,1.1,57,0.00,,,0.00,WSDL version 420,2013-02-03 02:47:00,
2013-02-02 20:52:00,7.8,-3.0,28.67,SSE,158,0.0,0.0,57,0.00,,,0.00,WSDL version 420,2013-02-03 02:52:00,
2013-02-02 20:57:00,7.8,-3.1,28.67,SSE,158,0.0,0.0,57,0.00,,,0.00,WSDL version 420,2013-02-03 02:57:00,
2013-02-02 21:02:00,7.9,-2.9,28.67,SSE,158,0.0,0.0,57,0.00,,,0.00,WSDL version 420,2013-02-03 03:02:00,
2013-02-02 21:12:00,8.1,-2.8,28.67,SSE,158,0.0,0.0,57,0.00,,,0.00,WSDL version 420,2013-02-03 03:12:00,
2013-02-02 21:17:00,8.1,-2.8,28.67,SSE,158,0.4,1.6,57,0.00,,,0.00,WSDL version 420,2013-02-03 03:17:00,
2013-02-02 21:22:00,7.9,-2.9,28.67,SSE,158,1.3,1.6,57,0.00,,,0.00,WSDL version 420,2013-02-03 03:22:00,
2013-02-02 21:27:00,7.9,-3.0,28.67,SSE,158,0.7,1.6,57,0.00,,,0.00,WSDL version 420,2013-02-03 03:27:00,
2013-02-02 21:32:00,7.9,-3.0,28.67,SSE,158,0.0,1.6,57,0.00,,,0.00,WSDL version 420,2013-02-03 03:32:00,
2013-02-02 21:37:00,7.9,-3.0,28.67,SSE,158,1.0,2.0,57,0.00,,,0.00,WSDL version 420,2013-02-03 03:37:00,
2013-02-02 21:42:00,8.0,-2.9,28.67,SSE,158,0.0,2.0,57,0.00,,,0.00,WSDL version 420,2013-02-03 03:42:00,
2013-02-02 21:47:00,8.0,-2.9,28.67,SSE,158,1.7,2.0,57,0.00,,,0.00,WSDL version 420,2013-02-03 03:47:00,
2013-02-02 21:52:00,7.9,-3.0,28.67,SSE,158,0.4,2.0,57,0.00,,,0.00,WSDL version 420,2013-02-03 03:52:00,
2013-02-02 21:57:00,7.9,-3.0,28.67,South,191,1.3,2.7,57,0.00,,,0.00,WSDL version 420,2013-02-03 03:57:00,
2013-02-02 22:02:00,7.9,-3.0,28.67,West,263,0.9,2.7,57,0.00,,,0.00,WSDL version 420,2013-02-03 04:02:00,
2013-02-02 22:07:00,7.9,-3.0,28.67,WSW,240,1.3,2.5,57,0.00,,,0.00,WSDL version 420,2013-02-03 04:07:00,
2013-02-02 22:12:00,7.9,-3.0,28.67,WNW,300,2.0,2.7,57,0.00,,,0.00,WSDL version 420,2013-02-03 04:12:00,
2013-02-02 22:17:00,7.9,-3.0,28.67,NW,323,1.9,2.7,57,0.00,,,0.00,WSDL version 420,2013-02-03 04:17:00,
2013-02-02 22:22:00,7.9,-3.0,28.67,WNW,300,2.8,2.9,57,0.00,,,0.00,WSDL version 420,2013-02-03 04:22:00,
2013-02-02 22:27:00,7.9,-3.0,28.67,NW,324,2.2,3.4,57,0.00,,,0.00,WSDL version 420,2013-02-03 04:27:00,
2013-02-02 22:32:00,7.9,-3.0,28.67,NW,315,2.7,3.4,57,0.00,,,0.00,WSDL version 420,2013-02-03 04:32:00,
2013-02-02 22:37:00,7.8,-3.1,28.67,WNW,300,3.7,4.5,57,0.00,,,0.00,WSDL version 420,2013-02-03 04:37:00,
2013-02-02 22:42:00,7.7,-3.1,28.67,WNW,293,1.6,4.5,57,0.00,,,0.00,WSDL version 420,2013-02-03 04:42:00,
2013-02-02 22:47:00,7.7,-3.1,28.67,NW,308,3.1,4.9,57,0.00,,,0.00,WSDL version 420,2013-02-03 04:47:00,
2013-02-02 22:52:00,7.7,-3.1,28.67,WNW,300,4.3,4.9,57,0.00,,,0.00,WSDL version 420,2013-02-03 04:52:00,
2013-02-02 22:57:00,7.6,-3.3,28.67,NW,315,2.8,4.3,57,0.00,,,0.00,WSDL version 420,2013-02-03 04:57:00,
2013-02-02 23:02:00,7.7,-3.1,28.67,NW,315,3.1,4.0,57,-99.99,,,-99.99,WSDL version 420,2013-02-03 05:02:00,
2013-02-02 23:07:00,7.7,-3.1,28.67,NW,308,3.4,3.8,57,0.00,,,0.00,WSDL version 420,2013-02-03 05:07:00,
2013-02-02 23:12:00,7.7,-3.1,28.67,NW,311,2.6,3.8,57,0.00,,,0.00,WSDL version 420,2013-02-03 05:12:00,
2013-02-02 23:17:00,7.7,-3.1,28.67,WNW,293,2.9,3.8,57,0.00,,,0.00,WSDL version 420,2013-02-03 05:17:00,
2013-02-02 23:22:00,7.7,-3.1,28.67,NW,323,2.5,3.6,57,0.00,,,0.00,WSDL version 420,2013-02-03 05:22:00,
2013-02-02 23:27:00,-999.0,-99.9,28.70,NNW,330,1.8,3.6,-999,0.00,,,0.00,WSDL version 420,2013-02-03 05:27:00,
2013-02-02 23:32:00,7.7,-3.1,28.70,NNW,338,4.4,5.8,57,0.00,,,0.00,WSDL version 420,2013-02-03 05:32:00,
2013-02-02 23:37:00,7.8,-3.0,28.70,NW,323,2.6,5.8,57,0.00,,,0.00,WSDL version 420,2013-02-03 05:37:00,
2013-02-02 23:42:00,7.9,-3.0,28.70,NNW,338,3.4,5.6,57,0.00,,,0.00,WSDL version 420,2013-02-03 05:42:00,
2013-02-02 23:47:00,7.9,-3.0,28.70,WNW,293,3.1,5.6,57,0.00,,,0.00,WSDL version 420,2013-02-03 05:47:00,
2013-02-02 23:52:00,-999.0,-99.9,28.70,NW,304,4.8,5.6,-999,0.00,,,0.00,WSDL version 420,2013-02-03 05:52:00,
2013-02-02 23:57:00,8.0,-2.9,28.70,NNW,338,2.6,5.6,57,-99.99,,,-99.99,WSDL version 420,2013-02-03 05:57:00,